Time;durP1;ratioP1;P1;durP2;ratioP2;P2;SDS_P1;SDS_P2;PMS_P1;PMS_P2;Temp;Humidity;BMP_temperature;BMP_pressure;BME280_temperature;BME280_humidity;BME280_pressure;Samples;Min_cycle;Max_cycle;Signal;HPM_P1;HPM_P2
2023/11/23 00:01:54;;;;;;;12.67;6.90;;;;;;;0.67;100.00;99315.56;5039027;28;20232;-79
2023/11/23 00:04:21;;;;;;;12.93;7.90;;;;;;;0.69;100.00;99336.38;5039814;28;20212;-81
2023/11/23 00:06:47;;;;;;;13.57;7.40;;;;;;;0.66;100.00;99344.19;5040514;28;20237;-80
2023/11/23 00:09:14;;;;;;;13.27;7.33;;;;;;;0.61;100.00;99348.59;5040268;28;20220;-79
2023/11/23 00:11:40;;;;;;;15.37;8.23;;;;;;;0.52;100.00;99352.16;5038845;28;20229;-79
2023/11/23 00:14:07;;;;;;;11.03;7.20;;;;;;;0.50;100.00;99340.88;5038311;28;20206;-79
2023/11/23 00:16:33;;;;;;;12.27;7.80;;;;;;;0.45;100.00;99321.84;5037480;28;20252;-79
2023/11/23 00:19:01;;;;;;;12.33;8.03;;;;;;;0.49;100.00;99326.16;5037563;28;20209;-79
2023/11/23 00:21:28;;;;;;;11.80;6.80;;;;;;;0.47;100.00;99309.72;5038752;28;20236;-79
2023/11/23 00:23:54;;;;;;;11.50;7.40;;;;;;;0.45;100.00;99308.00;5037528;28;20213;-79
2023/11/23 00:26:21;;;;;;;13.00;7.67;;;;;;;0.46;100.00;99313.22;5037537;28;20583;-79
2023/11/23 00:28:47;;;;;;;14.13;7.93;;;;;;;0.46;100.00;99323.59;5037787;28;20209;-79
2023/11/23 00:31:24;;;;;;;11.97;7.13;;;;;;;0.48;100.00;99319.25;5038011;28;20232;-79
2023/11/23 00:33:50;;;;;;;12.37;8.13;;;;;;;0.56;100.00;99313.97;5037688;28;20205;-81
2023/11/23 00:36:18;;;;;;;12.03;7.40;;;;;;;0.58;100.00;99326.09;5037826;28;20205;-81
2023/11/23 00:38:48;;;;;;;11.53;7.07;;;;;;;0.61;100.00;99320.81;5037555;28;20235;-79
2023/11/23 00:41:14;;;;;;;13.37;7.87;;;;;;;0.66;100.00;99316.44;5037109;28;20251;-79
2023/11/23 00:43:41;;;;;;;13.33;8.27;;;;;;;0.75;100.00;99313.72;5036110;28;20220;-81
2023/11/23 00:46:07;;;;;;;14.33;8.20;;;;;;;0.84;100.00;99318.81;5037290;28;20229;-79
2023/11/23 00:48:36;;;;;;;10.70;7.13;;;;;;;0.88;100.00;99315.31;5037851;28;20583;-80
2023/11/23 00:51:02;;;;;;;12.80;8.27;;;;;;;0.91;100.00;99304.84;5037795;28;20241;-79
2023/11/23 00:53:30;;;;;;;14.67;8.50;;;;;;;0.99;100.00;99299.56;5037458;28;20404;-81
2023/11/23 00:55:57;;;;;;;13.93;7.90;;;;;;;1.04;100.00;99301.22;5036298;28;20208;-80
2023/11/23 00:58:23;;;;;;;14.47;8.50;;;;;;;1.10;100.00;99301.13;5036569;28;20212;-81
2023/11/23 01:00:50;;;;;;;12.90;7.57;;;;;;;1.14;100.00;99308.03;5037807;28;20222;-81
2023/11/23 01:03:16;;;;;;;14.10;8.03;;;;;;;1.09;100.00;99304.63;5037622;28;20673;-81
2023/11/23 01:05:46;;;;;;;12.73;8.43;;;;;;;1.12;100.00;99304.56;5038473;28;20259;-81
2023/11/23 01:08:14;;;;;;;12.50;8.37;;;;;;;1.12;100.00;99303.72;5037704;28;20208;-79
2023/11/23 01:10:43;;;;;;;14.00;8.23;;;;;;;1.29;100.00;99302.59;5038028;28;20220;-79
2023/11/23 01:13:10;;;;;;;12.07;7.73;;;;;;;1.27;100.00;99304.38;5039819;28;20213;-80
2023/11/23 01:15:36;;;;;;;11.47;7.73;;;;;;;1.26;100.00;99300.06;5040853;28;20251;-80
2023/11/23 01:18:03;;;;;;;12.77;7.90;;;;;;;1.30;100.00;99308.69;5040561;28;20219;-81
2023/11/23 01:20:29;;;;;;;15.13;8.63;;;;;;;1.31;100.00;99311.28;5041633;28;20226;-79
2023/11/23 01:22:56;;;;;;;14.40;7.73;;;;;;;1.33;100.00;99314.72;5041379;28;20746;-80
2023/11/23 01:25:22;;;;;;;19.13;8.50;;;;;;;1.35;100.00;99302.50;5041309;28;20227;-79
2023/11/23 01:27:50;;;;;;;13.53;8.50;;;;;;;1.26;100.00;99318.28;5041353;28;20209;-79
2023/11/23 01:30:17;;;;;;;12.67;8.20;;;;;;;1.30;100.00;99314.72;5041464;28;20648;-80
2023/11/23 01:32:43;;;;;;;14.20;8.63;;;;;;;1.28;100.00;99306.09;5041067;28;20225;-81
2023/11/23 01:35:10;;;;;;;14.23;7.70;;;;;;;1.25;100.00;99307.88;5040703;28;20217;-82
2023/11/23 01:37:36;;;;;;;14.63;8.87;;;;;;;1.24;100.00;99298.34;5040827;28;20211;-81
2023/11/23 01:40:04;;;;;;;15.10;7.67;;;;;;;1.30;100.00;99285.25;5040682;28;20589;-79
2023/11/23 01:42:30;;;;;;;15.53;8.17;;;;;;;1.31;100.00;99295.66;5040239;28;20665;-79
2023/11/23 01:44:58;;;;;;;14.27;8.20;;;;;;;1.30;100.00;99299.09;5040781;28;20223;-81
2023/11/23 01:47:27;;;;;;;13.17;8.00;;;;;;;1.25;100.00;99294.84;5040750;28;20230;-79
2023/11/23 01:49:57;;;;;;;13.23;8.10;;;;;;;1.18;100.00;99288.88;5040845;28;20213;-80
2023/11/23 01:52:23;;;;;;;13.47;7.40;;;;;;;1.12;100.00;99282.91;5039977;28;20814;-80
2023/11/23 01:54:50;;;;;;;13.13;8.20;;;;;;;0.97;100.00;99272.66;5040387;28;20239;-80
2023/11/23 01:57:17;;;;;;;14.37;8.23;;;;;;;0.91;100.00;99278.84;5040829;28;20209;-79
2023/11/23 01:59:44;;;;;;;12.57;8.13;;;;;;;0.81;100.00;99277.22;5040488;28;20212;-79
2023/11/23 02:02:12;;;;;;;14.00;8.23;;;;;;;0.71;100.00;99270.44;5041531;28;20261;-81
2023/11/23 02:04:38;;;;;;;16.77;8.57;;;;;;;0.66;100.00;99266.13;5041402;28;20214;-81
2023/11/23 02:07:05;;;;;;;14.67;7.90;;;;;;;0.63;100.00;99261.84;5041374;28;20260;-81
2023/11/23 02:09:32;;;;;;;14.33;7.90;;;;;;;0.57;100.00;99256.69;5041734;28;20262;-81
2023/11/23 02:11:59;;;;;;;14.10;8.80;;;;;;;0.55;100.00;99248.06;5040956;28;20236;-81
2023/11/23 02:14:26;;;;;;;14.43;8.50;;;;;;;0.49;100.00;99242.94;5041006;28;20294;-80
2023/11/23 02:16:53;;;;;;;13.00;8.07;;;;;;;0.50;100.00;99244.66;5040920;28;20209;-79
2023/11/23 02:19:21;;;;;;;13.93;8.03;;;;;;;0.46;100.00;99247.31;5041159;28;20244;-79
2023/11/23 02:21:48;;;;;;;13.83;8.60;;;;;;;0.39;100.00;99249.13;5041170;28;20237;-81
2023/11/23 02:24:16;;;;;;;15.93;9.57;;;;;;;0.40;100.00;99252.59;5039814;28;20213;-79
2023/11/23 02:26:42;;;;;;;17.10;8.83;;;;;;;0.36;100.00;99254.38;5041244;28;20229;-80
2023/11/23 02:29:09;;;;;;;15.43;8.37;;;;;;;0.29;100.00;99259.63;5040962;28;20210;-81
2023/11/23 02:31:35;;;;;;;16.13;8.27;;;;;;;0.28;100.00;99247.53;5041213;28;20234;-81
2023/11/23 02:34:02;;;;;;;14.27;8.53;;;;;;;0.28;100.00;99250.13;5040939;28;20215;-80
2023/11/23 02:36:28;;;;;;;16.00;8.67;;;;;;;0.34;100.00;99248.34;5040439;28;20212;-80
2023/11/23 02:38:55;;;;;;;16.47;9.27;;;;;;;0.40;100.00;99243.06;5041133;28;20205;-81
2023/11/23 02:41:22;;;;;;;16.07;8.70;;;;;;;0.43;100.00;99237.81;5040820;28;20229;-79
2023/11/23 02:43:49;;;;;;;14.07;8.20;;;;;;;0.44;100.00;99239.53;5040238;28;20594;-80
2023/11/23 02:46:16;;;;;;;15.13;8.67;;;;;;;0.39;100.00;99240.47;5040968;28;20255;-81
2023/11/23 02:48:42;;;;;;;12.47;8.10;;;;;;;0.41;100.00;99244.78;5040419;28;20291;-80
2023/11/23 02:51:09;;;;;;;17.33;9.77;;;;;;;0.38;100.00;99239.59;5040344;28;20229;-81
2023/11/23 02:53:43;;;;;;;16.57;8.07;;;;;;;0.31;100.00;99237.94;5040476;28;20209;-81
2023/11/23 02:56:09;;;;;;;14.67;8.50;;;;;;;0.34;100.00;99237.06;5040425;28;20209;-81
2023/11/23 02:58:38;;;;;;;15.90;8.80;;;;;;;0.34;100.00;99235.31;5041037;28;20236;-81
2023/11/23 03:01:05;;;;;;;15.33;8.87;;;;;;;0.34;100.00;99243.13;5041584;28;20240;-79
2023/11/23 03:03:31;;;;;;;17.00;9.43;;;;;;;0.31;100.00;99255.31;5040465;28;20247;-81
2023/11/23 03:05:59;;;;;;;15.33;8.77;;;;;;;0.21;100.00;99254.53;5041354;28;20214;-80
2023/11/23 03:08:25;;;;;;;15.77;9.20;;;;;;;0.16;100.00;99255.44;5040955;28;20251;-80
2023/11/23 03:10:53;;;;;;;15.13;8.40;;;;;;;0.16;100.00;99258.06;5039973;28;20209;-79
2023/11/23 03:13:19;;;;;;;17.07;8.97;;;;;;;0.16;100.00;99258.94;5040791;28;20214;-79
2023/11/23 03:15:50;;;;;;;14.20;8.40;;;;;;;0.12;100.00;99261.53;5040190;28;20221;-80
2023/11/23 03:18:16;;;;;;;15.33;8.27;;;;;;;0.10;100.00;99258.97;5040086;28;20217;-80
2023/11/23 03:20:43;;;;;;;14.63;8.73;;;;;;;0.08;100.00;99257.28;5039477;28;20213;-80
2023/11/23 03:23:10;;;;;;;13.10;8.07;;;;;;;0.13;100.00;99253.75;5039501;28;20205;-80
2023/11/23 03:25:36;;;;;;;15.10;8.43;;;;;;;0.14;100.00;99250.25;5040295;28;20209;-80
2023/11/23 03:28:06;;;;;;;14.07;8.67;;;;;;;0.13;100.00;99248.53;5040516;28;20228;-80
2023/11/23 03:30:33;;;;;;;15.10;8.40;;;;;;;0.22;100.00;99253.66;5039646;28;20217;-80
2023/11/23 03:33:01;;;;;;;15.97;8.17;;;;;;;0.26;100.00;99239.72;5038268;28;20224;-79
2023/11/23 03:35:27;;;;;;;16.77;8.73;;;;;;;0.34;100.00;99248.34;5038141;28;20217;-80
2023/11/23 03:37:54;;;;;;;14.97;8.20;;;;;;;0.24;100.00;99244.09;5040006;28;20219;-80
2023/11/23 03:40:20;;;;;;;14.97;8.47;;;;;;;0.19;100.00;99243.28;5039363;28;20304;-79
2023/11/23 03:42:47;;;;;;;13.77;8.00;;;;;;;0.25;100.00;99247.56;5038990;28;20237;-80
2023/11/23 03:45:13;;;;;;;13.17;7.57;;;;;;;0.25;100.00;99260.56;5039763;28;20209;-80
2023/11/23 03:47:41;;;;;;;15.83;8.00;;;;;;;0.28;100.00;99253.59;5040296;28;20328;-80
2023/11/23 03:50:09;;;;;;;14.07;7.77;;;;;;;0.18;100.00;99251.97;5040554;28;20211;-79
2023/11/23 03:52:36;;;;;;;15.87;8.80;;;;;;;0.20;100.00;99247.59;5040060;28;20283;-80
2023/11/23 03:55:02;;;;;;;14.40;7.57;;;;;;;0.22;100.00;99251.06;5039650;28;20225;-79
2023/11/23 03:57:29;;;;;;;14.97;7.60;;;;;;;0.21;100.00;99238.06;5040540;28;20204;-80
2023/11/23 03:59:55;;;;;;;13.60;8.37;;;;;;;0.15;100.00;99241.63;5040655;28;20276;-80
2023/11/23 04:02:21;;;;;;;14.87;8.27;;;;;;;0.14;100.00;99229.47;5039726;28;20327;-80
2023/11/23 04:04:48;;;;;;;11.47;7.17;;;;;;;0.11;100.00;99233.84;5038316;28;20219;-79
2023/11/23 04:07:16;;;;;;;16.90;8.73;;;;;;;0.13;100.00;99240.75;5037031;28;20229;-79
2023/11/23 04:09:42;;;;;;;14.00;8.00;;;;;;;0.06;100.00;99231.28;5036995;28;20582;-79
2023/11/23 04:12:09;;;;;;;15.83;8.17;;;;;;;0.03;100.00;99228.75;5037048;28;20236;-80
2023/11/23 04:14:36;;;;;;;13.03;7.47;;;;;;;0.03;100.00;99225.28;5036836;28;20222;-80
2023/11/23 04:17:02;;;;;;;13.40;7.80;;;;;;;-0.01;100.00;99224.44;5036318;28;20213;-79
2023/11/23 04:19:29;;;;;;;12.27;7.33;;;;;;;-0.03;100.00;99225.34;5035952;28;20204;-79
2023/11/23 04:21:55;;;;;;;12.90;7.07;;;;;;;-0.08;100.00;99234.06;5037413;28;20255;-80
2023/11/23 04:24:24;;;;;;;14.20;7.43;;;;;;;-0.08;100.00;99236.66;5039921;28;20219;-80
2023/11/23 04:26:52;;;;;;;14.00;7.73;;;;;;;-0.14;100.00;99242.75;5039412;28;20235;-80
2023/11/23 04:29:18;;;;;;;13.03;6.90;;;;;;;-0.08;100.00;99231.47;5039258;28;20209;-80
2023/11/23 04:31:45;;;;;;;13.03;7.57;;;;;;;-0.13;100.00;99238.44;5038784;28;20230;-79
2023/11/23 04:34:12;;;;;;;12.47;7.10;;;;;;;-0.19;100.00;99241.94;5037952;28;20205;-80
2023/11/23 04:36:38;;;;;;;13.73;7.40;;;;;;;-0.25;100.00;99230.75;5036847;28;20220;-79
2023/11/23 04:39:05;;;;;;;12.53;7.20;;;;;;;-0.33;100.00;99240.38;5036048;28;20220;-80
2023/11/23 04:41:33;;;;;;;12.33;7.60;;;;;;;-0.34;100.00;99229.09;5036611;28;20236;-79
2023/11/23 04:44:00;;;;;;;11.27;7.17;;;;;;;-0.32;100.00;99231.69;5036473;28;20227;-80
2023/11/23 04:46:28;;;;;;;13.60;6.97;;;;;;;-0.32;100.00;99231.69;5037223;28;20277;-80
2023/11/23 04:48:54;;;;;;;15.50;7.70;;;;;;;-0.30;100.00;99229.94;5039956;28;20303;-79
2023/11/23 04:51:21;;;;;;;11.87;7.87;;;;;;;-0.32;100.00;99229.09;5041506;28;20232;-80
2023/11/23 04:53:47;;;;;;;14.10;7.70;;;;;;;-0.34;100.00;99228.22;5040307;28;20205;-80
2023/11/23 04:56:15;;;;;;;14.83;7.70;;;;;;;-0.36;100.00;99225.66;5039615;28;20212;-79
2023/11/23 04:58:43;;;;;;;14.33;7.17;;;;;;;-0.35;100.00;99223.91;5038819;28;20749;-80
2023/11/23 05:01:09;;;;;;;12.37;7.10;;;;;;;-0.40;100.00;99223.09;5038540;28;20251;-79
2023/11/23 05:03:36;;;;;;;12.17;7.33;;;;;;;-0.46;100.00;99217.94;5039944;28;20228;-80
2023/11/23 05:06:02;;;;;;;12.43;7.40;;;;;;;-0.43;100.00;99223.13;5040095;28;20747;-79
2023/11/23 05:08:29;;;;;;;13.27;7.60;;;;;;;-0.42;100.00;99214.44;5040924;28;20240;-80
2023/11/23 05:10:55;;;;;;;13.43;7.83;;;;;;;-0.45;100.00;99210.16;5040818;28;20213;-79
2023/11/23 05:13:22;;;;;;;13.37;7.47;;;;;;;-0.38;100.00;99208.38;5040962;28;20213;-79
2023/11/23 05:15:50;;;;;;;14.83;8.77;;;;;;;-0.42;100.00;99204.06;5040849;28;20209;-80
2023/11/23 05:18:16;;;;;;;13.57;6.97;;;;;;;-0.43;100.00;99199.75;5041131;28;20212;-79
2023/11/23 05:20:43;;;;;;;15.30;7.73;;;;;;;-0.43;100.00;99202.34;5040358;28;20266;-79
2023/11/23 05:23:09;;;;;;;10.47;6.63;;;;;;;-0.46;100.00;99202.34;5040863;28;20683;-80
2023/11/23 05:25:36;;;;;;;14.00;7.40;;;;;;;-0.45;100.00;99204.13;5040821;28;20212;-79
2023/11/23 05:28:02;;;;;;;11.97;6.80;;;;;;;-0.47;100.00;99200.66;5041058;28;20324;-80
2023/11/23 05:30:29;;;;;;;13.90;7.50;;;;;;;-0.45;100.00;99201.50;5039772;28;20656;-80
2023/11/23 05:32:56;;;;;;;14.47;7.60;;;;;;;-0.36;100.00;99204.00;5039472;28;20233;-79
2023/11/23 05:35:23;;;;;;;17.00;8.27;;;;;;;-0.33;100.00;99207.44;5040366;28;20204;-80
2023/11/23 05:37:49;;;;;;;12.57;7.40;;;;;;;-0.29;100.00;99200.47;5040431;28;20201;-80
2023/11/23 05:40:16;;;;;;;12.27;7.43;;;;;;;-0.30;100.00;99219.53;5040571;28;20209;-80
2023/11/23 05:42:43;;;;;;;12.50;7.27;;;;;;;-0.25;100.00;99228.16;5039616;28;20290;-80
2023/11/23 05:45:10;;;;;;;14.20;6.60;;;;;;;-0.28;100.00;99234.25;5040066;28;20208;-80
2023/11/23 05:47:36;;;;;;;13.60;7.10;;;;;;;-0.29;100.00;99240.31;5039790;28;20614;-80
2023/11/23 05:50:06;;;;;;;13.20;7.43;;;;;;;-0.29;100.00;99247.22;5039926;28;20213;-80
2023/11/23 05:52:34;;;;;;;14.00;6.50;;;;;;;-0.32;100.00;99242.09;5039545;28;20229;-79
2023/11/23 05:55:00;;;;;;;12.90;6.83;;;;;;;-0.40;100.00;99243.84;5040474;28;20209;-79
2023/11/23 05:57:27;;;;;;;12.57;6.77;;;;;;;-0.45;100.00;99243.06;5039951;28;20209;-80
2023/11/23 05:59:54;;;;;;;15.03;7.13;;;;;;;-0.51;100.00;99240.50;5038890;28;20690;-79
2023/11/23 06:02:20;;;;;;;12.20;6.87;;;;;;;-0.54;100.00;99236.19;5039398;28;20572;-79
2023/11/23 06:04:47;;;;;;;11.87;6.90;;;;;;;-0.53;100.00;99237.91;5039738;28;20208;-80
2023/11/23 06:07:15;;;;;;;10.20;6.30;;;;;;;-0.55;100.00;99241.41;5038721;28;20667;-80
2023/11/23 06:09:43;;;;;;;14.43;7.27;;;;;;;-0.62;100.00;99231.94;5038742;28;20212;-80
2023/11/23 06:12:09;;;;;;;14.03;6.77;;;;;;;-0.60;100.00;99245.75;5039025;28;20608;-80
2023/11/23 06:14:37;;;;;;;12.03;6.77;;;;;;;-0.58;100.00;99244.00;5039521;28;20227;-80
2023/11/23 06:17:04;;;;;;;11.03;6.37;;;;;;;-0.62;100.00;99244.94;5040117;28;20454;-81
2023/11/23 06:19:30;;;;;;;11.43;6.30;;;;;;;-0.56;100.00;99232.75;5039246;28;20635;-80
2023/11/23 06:21:57;;;;;;;12.97;7.07;;;;;;;-0.54;100.00;99237.94;5040210;28;20224;-80
2023/11/23 06:24:25;;;;;;;13.83;7.37;;;;;;;-0.52;100.00;99229.25;5039378;28;20220;-80
2023/11/23 06:26:52;;;;;;;11.03;6.40;;;;;;;-0.48;100.00;99235.28;5039390;28;20208;-80
2023/11/23 06:29:19;;;;;;;13.63;6.50;;;;;;;-0.45;100.00;99241.31;5040401;28;20236;-80
2023/11/23 06:31:45;;;;;;;13.23;7.17;;;;;;;-0.50;100.00;99237.03;5040221;28;20269;-80
2023/11/23 06:34:12;;;;;;;11.70;6.90;;;;;;;-0.52;100.00;99241.34;5039831;28;20220;-80
2023/11/23 06:36:38;;;;;;;11.23;6.27;;;;;;;-0.51;100.00;99243.94;5039520;28;20206;-80
2023/11/23 06:39:05;;;;;;;12.30;6.43;;;;;;;-0.49;100.00;99243.94;5038931;28;20210;-80
2023/11/23 06:41:33;;;;;;;11.30;6.37;;;;;;;-0.49;100.00;99243.94;5038715;28;20249;-79
2023/11/23 06:44:00;;;;;;;13.00;7.03;;;;;;;-0.53;100.00;99242.25;5038700;28;20316;-80
2023/11/23 06:46:26;;;;;;;12.00;6.37;;;;;;;-0.51;100.00;99241.34;5038782;28;20587;-80
2023/11/23 06:48:53;;;;;;;10.03;6.23;;;;;;;-0.53;100.00;99232.72;5037503;28;20236;-79
2023/11/23 06:51:19;;;;;;;12.10;6.40;;;;;;;-0.52;100.00;99230.97;5036741;28;20235;-81
2023/11/23 06:53:46;;;;;;;12.70;6.10;;;;;;;-0.49;100.00;99233.56;5038002;28;20636;-80
2023/11/23 06:56:13;;;;;;;12.57;6.70;;;;;;;-0.43;100.00;99234.34;5036200;28;20263;-77
2023/11/23 06:58:41;;;;;;;9.23;5.57;;;;;;;-0.43;100.00;99234.34;5035194;28;20259;-80
2023/11/23 07:01:08;;;;;;;11.20;6.03;;;;;;;-0.41;100.00;99226.56;5036791;28;20255;-80
2023/11/23 07:03:35;;;;;;;11.43;5.63;;;;;;;-0.33;100.00;99224.78;5038175;28;20208;-81
2023/11/23 07:06:02;;;;;;;12.90;5.87;;;;;;;-0.35;100.00;99216.13;5038774;28;20544;-80
2023/11/23 07:08:29;;;;;;;12.27;6.60;;;;;;;-0.28;100.00;99214.31;5039271;28;20282;-79
2023/11/23 07:10:57;;;;;;;12.13;6.17;;;;;;;-0.11;100.00;99216.75;5037951;28;20217;-79
2023/11/23 07:13:23;;;;;;;8.37;5.23;;;;;;;-0.03;100.00;99209.75;5037837;28;20714;-80
2023/11/23 07:15:55;;;;;;;11.23;6.03;;;;;;;-0.05;100.00;99201.94;5037743;28;20223;-82
2023/11/23 07:18:21;;;;;;;14.77;7.33;;;;;;;-0.06;100.00;99205.44;5044167;28;20203;-79
2023/11/23 07:20:48;;;;;;;13.10;6.13;;;;;;;0.00;100.00;99199.34;5053022;28;20647;-80
2023/11/23 07:23:14;;;;;;;11.00;6.57;;;;;;;0.03;100.00;99205.34;5052905;28;20218;-78
2023/11/23 07:25:43;;;;;;;11.23;6.17;;;;;;;0.06;100.00;99207.91;5053762;28;20299;-78
2023/11/23 07:28:11;;;;;;;11.20;6.30;;;;;;;0.10;100.00;99216.53;5053133;28;20230;-79
2023/11/23 07:30:38;;;;;;;10.43;5.70;;;;;;;0.12;100.00;99215.63;5053733;28;20231;-80
2023/11/23 07:33:07;;;;;;;9.50;5.73;;;;;;;0.14;100.00;99219.06;5053834;28;20227;-78
2023/11/23 07:35:34;;;;;;;10.07;5.60;;;;;;;0.24;100.00;99212.91;5054229;28;20234;-80
2023/11/23 07:38:02;;;;;;;11.27;5.97;;;;;;;0.35;100.00;99213.66;5053784;28;20208;-78
2023/11/23 07:40:29;;;;;;;8.87;5.03;;;;;;;0.39;100.00;99210.09;5055249;28;20238;-77
2023/11/23 07:42:56;;;;;;;9.43;5.27;;;;;;;0.42;100.00;99209.22;5054616;28;20239;-78
2023/11/23 07:45:22;;;;;;;9.43;5.20;;;;;;;0.45;100.00;99199.63;5053883;28;20215;-78
2023/11/23 07:47:49;;;;;;;9.40;5.43;;;;;;;0.55;100.00;99205.59;5053470;28;20229;-80
2023/11/23 07:50:17;;;;;;;8.47;4.83;;;;;;;0.55;100.00;99200.41;5053575;28;20271;-78
2023/11/23 07:52:44;;;;;;;9.87;5.60;;;;;;;0.59;100.00;99202.94;5052867;28;20236;-79
2023/11/23 07:55:12;;;;;;;10.23;4.80;;;;;;;0.71;100.00;99197.56;5054031;28;20228;-80
2023/11/23 07:57:39;;;;;;;9.50;5.57;;;;;;;0.81;100.00;99196.56;5054490;28;20278;-79
2023/11/23 08:00:07;;;;;;;7.30;4.37;;;;;;;0.82;100.00;99190.50;5054264;28;20213;-79
2023/11/23 08:02:34;;;;;;;8.93;5.07;;;;;;;0.99;100.00;99192.84;5056055;28;20295;-80
2023/11/23 08:05:00;;;;;;;8.13;5.10;;;;;;;1.03;100.00;99194.50;5054777;28;20212;-79
2023/11/23 08:07:28;;;;;;;9.30;4.70;;;;;;;1.13;100.00;99196.09;5054468;28;20600;-78
2023/11/23 08:09:57;;;;;;;7.37;4.40;;;;;;;1.19;100.00;99191.66;5052871;28;20251;-78
2023/11/23 08:12:25;;;;;;;9.53;4.83;;;;;;;1.31;100.00;99190.59;5053379;28;20597;-79
2023/11/23 08:14:51;;;;;;;9.07;4.13;;;;;;;1.46;100.00;99196.44;5051844;28;20698;-79
2023/11/23 08:17:18;;;;;;;7.03;4.43;;;;;;;1.63;100.00;99197.00;5052451;28;20214;-79
2023/11/23 08:19:46;;;;;;;8.30;5.10;;;;;;;1.81;100.00;99204.50;5052208;28;20623;-81
2023/11/23 08:22:13;;;;;;;8.13;4.60;;;;;;;2.08;100.00;99197.94;5050535;28;20873;-77
2023/11/23 08:24:40;;;;;;;7.80;4.30;;;;;;;2.32;100.00;99200.94;5051144;28;20619;-76
2023/11/23 08:27:07;;;;;;;7.70;4.70;;;;;;;2.60;100.00;99196.00;5051640;28;20208;-78
2023/11/23 08:29:33;;;;;;;8.07;4.80;;;;;;;2.77;100.00;99197.38;5055505;28;20602;-80
2023/11/23 08:32:00;;;;;;;6.67;4.17;;;;;;;2.99;100.00;99197.78;5054351;28;20699;-80
2023/11/23 08:34:26;;;;;;;7.47;4.33;;;;;;;3.14;100.00;99187.84;5054330;28;20213;-80
2023/11/23 08:36:54;;;;;;;8.43;4.57;;;;;;;3.31;100.00;99185.66;5053003;28;20219;-76
2023/11/23 08:39:21;;;;;;;7.47;4.60;;;;;;;3.39;100.00;99186.38;5051318;28;20242;-77
2023/11/23 08:41:48;;;;;;;7.43;4.50;;;;;;;3.47;100.00;99189.63;5050683;28;20232;-78
2023/11/23 08:44:15;;;;;;;6.07;4.40;;;;;;;3.58;100.00;99187.63;5050273;28;20228;-79
2023/11/23 08:46:42;;;;;;;6.87;4.40;;;;;;;3.61;100.00;99199.78;5051397;28;20317;-79
2023/11/23 08:49:12;;;;;;;6.47;4.63;;;;;;;3.66;100.00;99188.28;5051347;28;20243;-76
2023/11/23 08:51:38;;;;;;;6.67;4.17;;;;;;;3.74;100.00;99191.56;5051451;28;20236;-78
2023/11/23 08:54:06;;;;;;;7.77;4.40;;;;;;;3.80;100.00;99180.94;5051286;28;20205;-79
2023/11/23 08:56:32;;;;;;;7.20;4.30;;;;;;;3.88;100.00;99168.53;5051144;28;20288;-79
2023/11/23 08:59:00;;;;;;;7.80;3.90;;;;;;;4.00;100.00;99168.22;5051613;28;20210;-78
2023/11/23 09:01:27;;;;;;;5.80;3.97;;;;;;;4.01;100.00;99159.47;5051252;28;20320;-78
2023/11/23 09:03:54;;;;;;;6.63;4.00;;;;;;;4.03;100.00;99160.28;5050566;28;20246;-77
2023/11/23 09:06:21;;;;;;;6.63;4.13;;;;;;;4.08;100.00;99147.94;5051110;28;20246;-77
2023/11/23 09:08:48;;;;;;;4.57;3.20;;;;;;;4.14;100.00;99150.38;5051218;28;20320;-78
2023/11/23 09:11:15;;;;;;;5.63;3.57;;;;;;;4.22;100.00;99164.09;5051099;28;20274;-78
2023/11/23 09:13:43;;;;;;;5.00;3.33;;;;;;;4.25;100.00;99157.94;5051119;28;20584;-79
2023/11/23 09:16:13;;;;;;;5.10;3.87;;;;;;;4.31;100.00;99142.94;5051269;28;20583;-78
2023/11/23 09:18:42;;;;;;;4.83;3.63;;;;;;;4.44;100.00;99149.53;5051341;28;20309;-78
2023/11/23 09:21:10;;;;;;;4.50;3.10;;;;;;;4.60;100.00;99142.97;5051067;28;20321;-78
2023/11/23 09:23:36;;;;;;;4.87;3.57;;;;;;;4.72;100.00;99144.34;5050951;28;20299;-78
2023/11/23 09:26:04;;;;;;;4.20;3.00;;;;;;;4.80;100.00;99135.34;5050895;28;20216;-79
2023/11/23 09:28:31;;;;;;;4.80;3.37;;;;;;;4.82;100.00;99140.56;5051540;28;20227;-81
2023/11/23 09:30:57;;;;;;;5.30;3.30;;;;;;;4.85;100.00;99128.22;5052500;28;20231;-79
2023/11/23 09:33:26;;;;;;;5.03;3.50;;;;;;;4.98;100.00;99126.94;5051074;28;20221;-78
2023/11/23 09:35:52;;;;;;;5.13;3.40;;;;;;;5.04;100.00;99116.25;5053828;28;20215;-79
2023/11/23 09:38:19;;;;;;;4.90;3.57;;;;;;;5.06;100.00;99108.34;5054317;28;20206;-79
2023/11/23 09:40:45;;;;;;;4.95;3.67;;;;;;;5.14;100.00;99104.56;5055724;28;20894;-80
2023/11/23 09:43:12;;;;;;;6.13;3.43;;;;;;;5.15;100.00;99108.91;5054442;28;20220;-75
2023/11/23 09:45:39;;;;;;;5.80;3.43;;;;;;;5.24;100.00;99102.50;5054233;28;20774;-75
2023/11/23 09:48:08;;;;;;;5.17;3.03;;;;;;;5.29;100.00;99101.47;5053868;28;20215;-76
2023/11/23 09:50:36;;;;;;;3.93;2.80;;;;;;;5.30;100.00;99090.06;5054418;28;20215;-78
2023/11/23 09:53:04;;;;;;;3.93;3.20;;;;;;;5.41;100.00;99094.94;5054889;28;20683;-78
2023/11/23 09:55:31;;;;;;;4.73;3.17;;;;;;;5.44;100.00;99095.69;5054943;28;20299;-78
2023/11/23 09:57:58;;;;;;;5.30;3.20;;;;;;;5.49;100.00;99085.91;5054574;28;20212;-78
2023/11/23 10:00:25;;;;;;;3.53;2.73;;;;;;;5.52;100.00;99082.31;5057242;28;20218;-78
2023/11/23 10:02:55;;;;;;;5.53;2.37;;;;;;;5.49;100.00;99078.03;5056794;28;20340;-79
2023/11/23 10:05:23;;;;;;;3.13;2.27;;;;;;;5.52;100.00;99077.97;5055158;28;20216;-78
2023/11/23 10:07:53;;;;;;;3.63;2.40;;;;;;;5.55;100.00;99072.59;5056843;28;20215;-79
2023/11/23 10:10:20;;;;;;;3.20;2.30;;;;;;;5.56;100.00;99062.97;5057023;28;20226;-79
2023/11/23 10:12:47;;;;;;;3.10;1.90;;;;;;;5.62;100.00;99053.09;5056269;28;20751;-79
2023/11/23 10:15:13;;;;;;;3.50;2.53;;;;;;;5.66;100.00;99038.13;5056479;28;20299;-79
2023/11/23 10:17:41;;;;;;;3.80;1.83;;;;;;;5.70;100.00;99048.47;5056525;28;20213;-79
2023/11/23 10:20:10;;;;;;;3.03;2.00;;;;;;;5.76;100.00;99045.63;5055644;28;20248;-78
2023/11/23 10:22:37;;;;;;;3.10;2.33;;;;;;;5.87;100.00;99043.50;5055732;28;20289;-79
2023/11/23 10:25:06;;;;;;;2.90;1.90;;;;;;;5.95;100.00;99041.47;5055345;28;20237;-78
2023/11/23 10:27:33;;;;;;;3.83;2.00;;;;;;;6.00;100.00;99039.53;5055079;28;20269;-79
2023/11/23 10:30:01;;;;;;;2.53;1.90;;;;;;;6.04;100.00;99041.13;5054226;28;20232;-78
2023/11/23 10:32:30;;;;;;;3.40;2.03;;;;;;;6.09;100.00;99038.31;5055119;28;20243;-78
2023/11/23 10:35:03;;;;;;;4.67;2.40;;;;;;;6.06;100.00;99039.31;5054185;28;20217;-78
2023/11/23 10:37:33;;;;;;;3.47;2.73;;;;;;;6.11;100.00;99042.59;5055325;28;20211;-78
2023/11/23 10:40:01;;;;;;;3.47;2.30;;;;;;;6.08;100.00;99036.59;5054526;28;20204;-77
2023/11/23 10:42:32;;;;;;;2.80;2.00;;;;;;;6.11;100.00;99037.34;5054205;28;20227;-78
2023/11/23 10:44:58;;;;;;;3.10;2.20;;;;;;;6.13;100.00;99034.66;5054364;28;20219;-79
2023/11/23 10:47:27;;;;;;;5.13;2.47;;;;;;;6.24;100.00;99033.34;5054279;28;20203;-78
2023/11/23 10:49:55;;;;;;;3.70;2.07;;;;;;;6.27;100.00;99033.25;5055154;28;20434;-79
2023/11/23 10:52:24;;;;;;;2.63;2.40;;;;;;;6.32;100.00;99028.69;5054096;28;20710;-78
2023/11/23 10:54:51;;;;;;;3.57;2.10;;;;;;;6.39;100.00;99024.91;5053683;28;20237;-78
2023/11/23 10:57:18;;;;;;;3.40;2.20;;;;;;;6.46;100.00;99020.25;5055117;28;20321;-79
2023/11/23 10:59:48;;;;;;;3.43;2.40;;;;;;;6.42;100.00;99006.38;5055387;28;20214;-80
2023/11/23 11:02:15;;;;;;;4.63;2.70;;;;;;;6.45;100.00;99008.91;5057475;28;20231;-80
2023/11/23 11:04:42;;;;;;;3.93;2.80;;;;;;;6.48;100.00;99006.16;5056363;28;20210;-81
2023/11/23 11:07:10;;;;;;;2.90;2.20;;;;;;;6.48;100.00;98998.28;5055811;28;20218;-80
2023/11/23 11:09:39;;;;;;;2.50;2.07;;;;;;;6.56;100.00;98987.47;5054838;28;20606;-79
2023/11/23 11:12:12;;;;;;;2.83;2.03;;;;;;;6.60;100.00;98982.03;5056892;28;20290;-80
2023/11/23 11:14:49;;;;;;;3.37;2.30;;;;;;;6.66;100.00;98984.41;5055748;28;20529;-80
2023/11/23 11:17:17;;;;;;;3.23;2.10;;;;;;;6.74;100.00;98982.34;5056697;28;20204;-78
2023/11/23 11:19:44;;;;;;;3.47;2.07;;;;;;;6.80;100.00;98976.84;5056381;28;20230;-78
2023/11/23 11:22:15;;;;;;;2.93;2.03;;;;;;;6.81;100.00;98978.56;5055517;28;20242;-79
2023/11/23 11:24:44;;;;;;;3.27;2.03;;;;;;;6.85;100.00;98985.38;5055663;28;20262;-79
2023/11/23 11:27:12;;;;;;;2.40;1.97;;;;;;;6.90;100.00;98983.41;5056760;28;20263;-77